createdAt,value
2022-09-25T00:00:58.925Z,101291.19
2022-09-25T00:03:28.300Z,101291.19
2022-09-25T00:06:04.543Z,101291.38
2022-09-25T00:08:33.110Z,101290.13
2022-09-25T00:11:01.034Z,101285.78
2022-09-25T00:13:28.704Z,101290.72
2022-09-25T00:15:57.904Z,101293.97
2022-09-25T00:18:44.398Z,101287.94
2022-09-25T00:21:15.696Z,101289.16
2022-09-25T00:23:44.737Z,101292.03
2022-09-25T00:26:13.581Z,101296.31
2022-09-25T00:28:41.701Z,101289.94
2022-09-25T00:31:11.268Z,101288.28
2022-09-25T00:33:39.122Z,101292.13
2022-09-25T00:36:09.744Z,101288.44
2022-09-25T00:38:39.408Z,101289.66
2022-09-25T00:41:08.611Z,101288.63
2022-09-25T00:43:40.003Z,101296.47
2022-09-25T00:46:12.324Z,101290.06
2022-09-25T00:48:49.487Z,101288.22
2022-09-25T00:51:19.456Z,101292.28
2022-09-25T00:53:49.927Z,101295.97
2022-09-25T00:56:17.654Z,101291.84
2022-09-25T00:58:45.246Z,101297.00
2022-09-25T01:01:13.166Z,101295.28
2022-09-25T01:03:46.286Z,101290.16
2022-09-25T01:06:15.237Z,101292.03
2022-09-25T01:08:44.263Z,101288.09
2022-09-25T01:11:13.194Z,101291.16
2022-09-25T01:13:41.265Z,101293.19
2022-09-25T01:16:14.508Z,101290.09
2022-09-25T01:18:53.146Z,101294.81
2022-09-25T01:21:29.446Z,101300.31
2022-09-25T01:24:19.141Z,101287.72
2022-09-25T01:27:07.364Z,101289.41
2022-09-25T01:29:41.572Z,101290.22
2022-09-25T01:32:20.599Z,101285.69
2022-09-25T01:34:56.464Z,101283.66
2022-09-25T01:37:30.723Z,101292.31
2022-09-25T01:40:07.682Z,101288.41
2022-09-25T01:42:41.267Z,101290.91
2022-09-25T01:45:17.039Z,101285.75
2022-09-25T01:47:48.610Z,101291.09
2022-09-25T01:50:19.998Z,101283.72
2022-09-25T01:52:51.213Z,101283.53
2022-09-25T01:55:23.426Z,101284.97
2022-09-25T01:57:57.737Z,101284.13
2022-09-25T02:00:27.044Z,101285.19
2022-09-25T02:02:58.247Z,101294.22
2022-09-25T02:05:30.951Z,101299.56
2022-09-25T02:08:03.329Z,101291.94
2022-09-25T02:10:36.082Z,101292.31
2022-09-25T02:13:09.062Z,101293.31
2022-09-25T02:15:40.314Z,101294.53
2022-09-25T02:18:28.472Z,101298.63
2022-09-25T02:21:01.392Z,101297.59
2022-09-25T02:23:37.935Z,101286.84
2022-09-25T02:26:08.970Z,101285.81
2022-09-25T02:28:37.370Z,101284.13
2022-09-25T02:31:11.329Z,101281.25
2022-09-25T02:33:39.243Z,101277.94
2022-09-25T02:36:07.344Z,101275.91
2022-09-25T02:38:36.141Z,101275.28
2022-09-25T02:41:16.435Z,101278.13
2022-09-25T02:43:51.865Z,101276.41
2022-09-25T02:46:30.397Z,101279.25
2022-09-25T02:49:06.625Z,101281.94
2022-09-25T02:51:42.793Z,101272.44
2022-09-25T02:54:21.087Z,101275.47
2022-09-25T02:56:54.435Z,101273.84
2022-09-25T02:59:29.283Z,101276.91
2022-09-25T03:01:59.830Z,101266.41
2022-09-25T03:04:29.386Z,101269.69
2022-09-25T03:06:58.143Z,101268.88
2022-09-25T03:09:25.714Z,101269.28
2022-09-25T03:11:53.309Z,101265.94
2022-09-25T03:14:21.054Z,101266.41
2022-09-25T03:16:51.321Z,101254.03
2022-09-25T03:19:20.653Z,101258.19
2022-09-25T03:21:48.674Z,101258.63
2022-09-25T03:24:16.881Z,101265.47
2022-09-25T03:26:44.621Z,101259.75
2022-09-25T03:29:12.933Z,101264.06
2022-09-25T03:31:42.114Z,101264.91
2022-09-25T03:34:10.056Z,101263.78
2022-09-25T03:36:39.060Z,101263.59
2022-09-25T03:39:06.939Z,101258.72
2022-09-25T03:41:35.584Z,101256.41
2022-09-25T03:44:04.816Z,101257.16
2022-09-25T03:46:34.245Z,101260.50
2022-09-25T03:49:03.107Z,101253.28
2022-09-25T03:51:32.718Z,101262.78
2022-09-25T03:54:03.920Z,101257.09
2022-09-25T03:56:32.624Z,101260.00
2022-09-25T03:59:00.589Z,101262.69
2022-09-25T04:01:29.592Z,101262.28
2022-09-25T04:03:57.355Z,101261.09
2022-09-25T04:06:26.976Z,101257.19
2022-09-25T04:08:55.186Z,101259.47
2022-09-25T04:11:25.760Z,101252.09
2022-09-25T04:13:53.872Z,101254.75
2022-09-25T04:16:21.955Z,101252.28
2022-09-25T04:18:50.609Z,101250.47
2022-09-25T04:21:18.223Z,101247.97
2022-09-25T04:24:06.506Z,101237.94
2022-09-25T04:26:36.183Z,101244.28
2022-09-25T04:29:03.989Z,101239.78
2022-09-25T04:31:32.173Z,101242.44
2022-09-25T04:33:58.864Z,101242.44
2022-09-25T04:36:26.442Z,101244.06
2022-09-25T04:38:53.985Z,101245.94
2022-09-25T04:41:21.607Z,101240.59
2022-09-25T04:43:50.517Z,101244.91
2022-09-25T04:46:22.216Z,101241.41
2022-09-25T04:48:50.963Z,101240.16
2022-09-25T04:51:18.514Z,101236.81
2022-09-25T04:53:47.219Z,101239.50
2022-09-25T04:56:16.394Z,101237.25
2022-09-25T04:58:45.734Z,101244.84
2022-09-25T05:01:14.749Z,101242.16
2022-09-25T05:03:42.769Z,101234.75
2022-09-25T05:06:10.467Z,101243.59
2022-09-25T05:08:38.403Z,101240.28
2022-09-25T05:11:06.038Z,101238.44
2022-09-25T05:13:33.573Z,101235.50
2022-09-25T05:16:01.257Z,101238.75
2022-09-25T05:18:30.191Z,101236.06
2022-09-25T05:20:58.062Z,101231.38
2022-09-25T05:23:25.706Z,101232.75
2022-09-25T05:25:55.047Z,101233.56
2022-09-25T05:28:23.507Z,101241.41
2022-09-25T05:30:51.777Z,101242.69
2022-09-25T05:33:19.464Z,101247.66
2022-09-25T05:35:49.402Z,101249.78
2022-09-25T05:38:17.002Z,101248.56
2022-09-25T05:40:44.911Z,101250.47
2022-09-25T05:43:13.118Z,101249.56
2022-09-25T05:45:40.658Z,101254.72
2022-09-25T05:48:09.427Z,101252.84
2022-09-25T05:50:37.135Z,101253.31
2022-09-25T05:53:06.673Z,101250.59
2022-09-25T05:55:34.255Z,101256.88
2022-09-25T05:58:02.774Z,101252.16
2022-09-25T06:00:32.477Z,101260.91
2022-09-25T06:03:00.269Z,101253.59
2022-09-25T06:05:27.926Z,101256.88
2022-09-25T06:07:56.457Z,101256.94
2022-09-25T06:10:26.797Z,101253.91
2022-09-25T06:12:58.581Z,101257.13
2022-09-25T06:15:28.060Z,101264.56
2022-09-25T06:17:56.026Z,101263.19
2022-09-25T06:20:23.873Z,101260.09
2022-09-25T06:22:54.518Z,101259.44
2022-09-25T06:25:23.804Z,101266.38
2022-09-25T06:27:54.992Z,101261.69
2022-09-25T06:30:23.737Z,101259.78
2022-09-25T06:32:57.630Z,101259.78
2022-09-25T06:35:25.833Z,101270.38
2022-09-25T06:37:57.254Z,101261.72
2022-09-25T06:40:26.362Z,101269.34
2022-09-25T06:42:57.842Z,101265.22
2022-09-25T06:45:26.926Z,101267.41
2022-09-25T06:47:57.755Z,101263.88
2022-09-25T06:50:31.606Z,101256.94
2022-09-25T06:52:59.695Z,101258.88
2022-09-25T06:55:27.695Z,101262.88
2022-09-25T06:57:55.234Z,101261.16
2022-09-25T07:00:24.193Z,101264.75
2022-09-25T07:03:09.640Z,101267.84
2022-09-25T07:05:37.236Z,101273.56
2022-09-25T07:08:04.920Z,101263.31
2022-09-25T07:10:32.454Z,101281.00
2022-09-25T07:13:00.373Z,101279.28
2022-09-25T07:15:29.384Z,101275.59
2022-09-25T07:17:56.925Z,101264.91
2022-09-25T07:20:24.557Z,101276.44
2022-09-25T07:22:54.272Z,101278.63
2022-09-25T07:25:21.814Z,101276.16
2022-09-25T07:27:50.051Z,101286.09
2022-09-25T07:30:17.656Z,101281.00
2022-09-25T07:32:46.547Z,101296.47
2022-09-25T07:35:14.223Z,101292.03
2022-09-25T07:37:41.759Z,101287.50
2022-09-25T07:40:13.665Z,101277.38
2022-09-25T07:42:41.986Z,101270.28
2022-09-25T07:45:10.990Z,101276.59
2022-09-25T07:47:38.678Z,101271.56
2022-09-25T07:50:12.032Z,101278.81
2022-09-25T07:52:42.922Z,101268.78
2022-09-25T07:55:10.828Z,101274.59
2022-09-25T07:57:38.369Z,101268.69
2022-09-25T08:00:06.985Z,101265.69
2022-09-25T08:02:35.189Z,101271.56
2022-09-25T08:05:02.822Z,101267.53
2022-09-25T08:07:31.987Z,101270.50
2022-09-25T08:09:59.548Z,101268.28
2022-09-25T08:12:28.397Z,101268.53
2022-09-25T08:14:55.956Z,101269.44
2022-09-25T08:17:23.819Z,101263.19
2022-09-25T08:19:51.363Z,101264.94
2022-09-25T08:22:18.887Z,101260.19
2022-09-25T08:24:48.650Z,101264.38
2022-09-25T08:27:16.346Z,101263.56
2022-09-25T08:29:43.874Z,101262.75
2022-09-25T08:32:12.078Z,101261.47
2022-09-25T08:34:41.382Z,101262.94
2022-09-25T08:37:09.813Z,101264.78
2022-09-25T08:39:37.556Z,101270.53
2022-09-25T08:42:06.628Z,101263.56
2022-09-25T08:44:38.445Z,101273.25
2022-09-25T08:47:29.598Z,101266.88
2022-09-25T08:50:03.837Z,101269.56
2022-09-25T08:52:32.049Z,101263.75
2022-09-25T08:54:59.705Z,101266.44
2022-09-25T08:57:35.097Z,101263.78
2022-09-25T09:00:08.777Z,101273.06
2022-09-25T09:02:42.555Z,101267.50
2022-09-25T09:05:18.555Z,101264.78
2022-09-25T09:07:50.605Z,101265.81
2022-09-25T09:10:28.570Z,101267.47
2022-09-25T09:13:00.692Z,101258.22
2022-09-25T09:15:33.613Z,101261.03
2022-09-25T09:18:06.600Z,101253.81
2022-09-25T09:20:42.575Z,101256.09
2022-09-25T09:23:17.058Z,101249.88
2022-09-25T09:25:51.651Z,101252.13
2022-09-25T09:42:25.726Z,101253.41
2022-09-25T09:45:05.036Z,101253.41
2022-09-25T09:47:41.870Z,101254.09
2022-09-25T09:50:24.176Z,101254.50
2022-09-25T09:52:59.290Z,101251.63
2022-09-25T09:55:34.460Z,101248.31
2022-09-25T09:58:08.521Z,101245.53
2022-09-25T10:00:37.403Z,101235.97
2022-09-25T10:03:12.272Z,101242.97
2022-09-25T10:05:43.892Z,101243.97
2022-09-25T10:08:12.122Z,101236.34
2022-09-25T10:10:41.642Z,101239.41
2022-09-25T10:13:16.228Z,101231.84
2022-09-25T10:15:48.248Z,101230.97
2022-09-25T10:18:17.442Z,101238.97
2022-09-25T10:20:48.655Z,101221.97
2022-09-25T10:23:32.866Z,101223.44
2022-09-25T10:26:00.768Z,101219.91
2022-09-25T10:28:32.214Z,101218.31
2022-09-25T10:31:01.821Z,101224.63
2022-09-25T10:33:31.660Z,101222.72
2022-09-25T10:35:59.769Z,101211.97
2022-09-25T10:38:41.945Z,101211.34
2022-09-25T10:41:12.956Z,101203.66
2022-09-25T10:43:55.704Z,101215.75
2022-09-25T10:47:00.778Z,101203.88
2022-09-25T10:49:47.064Z,101193.94
2022-09-25T10:52:17.137Z,101196.91
2022-09-25T10:54:45.828Z,101196.25
2022-09-25T10:57:34.342Z,101192.38
2022-09-25T11:00:06.054Z,101197.53
2022-09-25T11:02:37.986Z,101201.19
2022-09-25T11:05:08.956Z,101190.53
2022-09-25T11:07:36.519Z,101194.69
2022-09-25T11:10:05.132Z,101183.16
2022-09-25T11:12:33.070Z,101182.94
2022-09-25T11:15:05.785Z,101183.19
2022-09-25T11:17:38.325Z,101180.97
2022-09-25T11:20:30.587Z,101172.94
2022-09-25T11:23:06.566Z,101177.84
2022-09-25T11:25:40.176Z,101173.16
2022-09-25T11:28:14.709Z,101171.13
2022-09-25T11:30:49.409Z,101159.84
2022-09-25T11:33:24.993Z,101157.75
2022-09-25T11:35:57.647Z,101157.88
2022-09-25T11:38:50.598Z,101149.19
2022-09-25T11:41:26.253Z,101156.59
2022-09-25T11:44:02.905Z,101156.00
2022-09-25T11:46:40.834Z,101161.69
2022-09-25T11:49:18.061Z,101157.06
2022-09-25T11:52:32.446Z,101147.44
2022-09-25T11:55:16.365Z,101144.59
2022-09-25T11:57:55.948Z,101143.44
2022-09-25T12:00:29.754Z,101141.44
2022-09-25T12:03:22.462Z,101138.63
2022-09-25T12:06:14.214Z,101138.63
2022-09-25T12:08:58.008Z,101137.09
2022-09-25T12:11:41.223Z,101133.59
2022-09-25T12:14:17.208Z,101135.34
2022-09-25T12:16:52.319Z,101129.84
2022-09-25T12:19:33.582Z,101122.78
2022-09-25T12:22:09.032Z,101117.63
2022-09-25T12:24:51.189Z,101116.91
2022-09-25T12:27:28.026Z,101109.78
2022-09-25T12:30:08.666Z,101099.47
2022-09-25T12:32:54.237Z,101097.41
2022-09-25T12:35:43.365Z,101091.50
2022-09-25T12:38:22.282Z,101092.94
2022-09-25T12:40:55.948Z,101092.03
2022-09-25T12:43:28.861Z,101095.00
2022-09-25T12:46:03.469Z,101085.16
2022-09-25T12:48:37.251Z,101080.53
2022-09-25T12:51:14.710Z,101083.22
2022-09-25T12:53:47.403Z,101083.78
2022-09-25T12:56:18.957Z,101080.25
2022-09-25T12:58:57.391Z,101084.09
2022-09-25T13:01:31.140Z,101081.56
2022-09-25T13:04:20.846Z,101082.19
2022-09-25T13:06:56.401Z,101079.28
2022-09-25T13:09:33.714Z,101082.06
2022-09-25T13:12:06.862Z,101076.91
2022-09-25T13:14:39.799Z,101083.16
2022-09-25T13:17:12.090Z,101075.97
2022-09-25T13:19:39.724Z,101067.78
2022-09-25T13:22:12.514Z,101056.53
2022-09-25T13:24:45.714Z,101065.91
2022-09-25T13:27:19.726Z,101064.28
2022-09-25T13:29:55.296Z,101061.97
2022-09-25T13:32:25.378Z,101060.56
2022-09-25T13:34:56.087Z,101057.56
2022-09-25T13:37:31.489Z,101047.59
2022-09-25T13:40:19.636Z,101055.03
2022-09-25T13:42:47.741Z,101045.06
2022-09-25T13:45:33.292Z,101051.50
2022-09-25T13:48:07.856Z,101041.81
2022-09-25T13:50:46.126Z,101033.59
2022-09-25T13:53:32.211Z,101035.38
2022-09-25T13:56:15.145Z,101028.06
2022-09-25T13:59:10.015Z,101024.59
2022-09-25T14:01:39.750Z,101024.75
2022-09-25T14:04:16.843Z,101023.72
2022-09-25T14:06:46.706Z,101021.13
2022-09-25T14:09:18.409Z,101018.88
2022-09-25T14:11:54.183Z,101007.06
2022-09-25T14:14:29.831Z,101013.59
2022-09-25T14:16:59.362Z,101007.28
2022-09-25T14:19:30.630Z,101011.28
2022-09-25T14:22:00.533Z,101002.19
2022-09-25T14:24:30.905Z,101000.41
2022-09-25T14:27:00.211Z,100996.03
2022-09-25T14:29:30.955Z,101006.59
2022-09-25T14:32:25.861Z,100999.78
2022-09-25T14:35:24.955Z,100995.31
2022-09-25T14:38:15.978Z,100994.50
2022-09-25T14:40:57.115Z,100992.25
2022-09-25T14:43:47.668Z,100997.19
2022-09-25T14:46:20.038Z,100997.31
2022-09-25T14:48:52.053Z,101002.47
2022-09-25T14:51:25.661Z,100995.72
2022-09-25T14:53:58.263Z,100991.47
2022-09-25T14:56:28.970Z,100994.69
2022-09-25T14:58:59.167Z,100995.81
2022-09-25T15:01:29.396Z,100989.00
2022-09-25T15:04:00.751Z,100990.38
2022-09-25T15:06:31.470Z,100986.16
2022-09-25T15:09:01.692Z,100983.53
2022-09-25T15:11:44.084Z,100993.44
2022-09-25T15:14:13.337Z,100987.78
2022-09-25T15:17:00.795Z,100988.72
2022-09-25T15:19:33.402Z,100989.78
2022-09-25T15:22:01.586Z,100987.38
2022-09-25T15:24:32.594Z,100988.22
2022-09-25T15:27:04.928Z,100987.97
2022-09-25T15:29:36.329Z,100978.50
2022-09-25T15:32:05.122Z,100986.06
2022-09-25T15:34:33.239Z,100983.47
2022-09-25T15:37:20.822Z,100972.63
2022-09-25T15:39:48.346Z,100971.69
2022-09-25T15:42:17.317Z,100974.47
2022-09-25T15:44:45.419Z,100977.75
2022-09-25T15:47:52.184Z,100979.13
2022-09-25T15:50:25.104Z,100973.94
2022-09-25T15:52:56.332Z,100964.19
2022-09-25T15:55:24.539Z,100966.91
2022-09-25T15:57:56.477Z,100970.50
2022-09-25T16:00:43.346Z,100962.59
2022-09-25T16:03:36.359Z,100954.72
2022-09-25T16:06:04.470Z,100961.81
2022-09-25T16:08:33.868Z,100950.88
2022-09-25T16:11:15.509Z,100961.31
2022-09-25T16:13:46.379Z,100949.78
2022-09-25T16:16:23.871Z,100955.59
2022-09-25T16:18:54.583Z,100961.13
2022-09-25T16:21:28.721Z,100963.22
2022-09-25T16:23:59.604Z,100957.69
2022-09-25T16:26:36.198Z,100956.38
2022-09-25T16:29:15.838Z,100959.97
2022-09-25T16:31:45.028Z,100958.88
2022-09-25T16:34:19.795Z,100960.59
2022-09-25T16:36:48.474Z,100963.97
2022-09-25T16:39:24.661Z,100964.03
2022-09-25T16:41:52.869Z,100966.38
2022-09-25T16:44:22.083Z,100968.25
2022-09-25T16:47:07.591Z,100965.84
2022-09-25T16:49:36.520Z,100967.75
2022-09-25T16:52:07.607Z,100967.53
2022-09-25T16:54:38.864Z,100959.91
2022-09-25T16:57:06.439Z,100964.91
2022-09-25T16:59:34.043Z,100959.16
2022-09-25T17:02:20.899Z,100959.97
2022-09-25T17:04:50.626Z,100958.13
2022-09-25T17:07:18.297Z,100956.47
2022-09-25T17:09:45.818Z,100949.47
2022-09-25T17:12:19.372Z,100947.22
2022-09-25T17:14:48.631Z,100948.63
2022-09-25T17:17:19.718Z,100949.25
2022-09-25T17:19:47.244Z,100949.88
2022-09-25T17:22:16.281Z,100956.44
2022-09-25T17:24:43.820Z,100952.28
2022-09-25T17:27:13.733Z,100946.31
2022-09-25T17:29:41.514Z,100944.84
2022-09-25T17:32:14.013Z,100942.56
2022-09-25T17:34:42.426Z,100949.72
2022-09-25T17:37:09.946Z,100945.16
2022-09-25T17:39:38.887Z,100941.44
2022-09-25T17:42:06.669Z,100937.94
2022-09-25T17:44:34.552Z,100938.69
2022-09-25T17:47:02.187Z,100939.50
2022-09-25T17:49:29.983Z,100941.13
2022-09-25T17:51:57.605Z,100938.41
2022-09-25T17:54:26.962Z,100944.53
2022-09-25T17:56:56.781Z,100933.81
2022-09-25T17:59:24.377Z,100936.25
2022-09-25T18:01:53.016Z,100927.19
2022-09-25T18:04:22.594Z,100935.16
2022-09-25T18:06:50.597Z,100933.28
2022-09-25T18:09:18.468Z,100923.53
2022-09-25T18:11:46.104Z,100923.72
2022-09-25T18:14:16.758Z,100922.66
2022-09-25T18:16:45.573Z,100913.56
2022-09-25T18:19:35.411Z,100918.66
2022-09-25T18:22:19.006Z,100909.59
2022-09-25T18:24:47.136Z,100900.50
2022-09-25T18:27:16.117Z,100900.06
2022-09-25T18:29:46.153Z,100894.31
2022-09-25T18:32:14.328Z,100885.66
2022-09-25T18:34:42.232Z,100887.72
2022-09-25T18:37:10.330Z,100889.56
2022-09-25T18:39:38.195Z,100896.94
2022-09-25T18:42:06.111Z,100889.09
2022-09-25T18:44:38.477Z,100888.47
2022-09-25T18:47:10.377Z,100887.88
2022-09-25T18:49:38.081Z,100880.03
2022-09-25T18:52:06.318Z,100877.75
2022-09-25T18:54:34.077Z,100878.97
2022-09-25T18:57:01.641Z,100871.34
2022-09-25T18:59:29.208Z,100870.91
2022-09-25T19:01:57.094Z,100861.66
2022-09-25T19:04:26.602Z,100864.91
2022-09-25T19:06:54.131Z,100866.09
2022-09-25T19:09:24.190Z,100859.72
2022-09-25T19:11:52.132Z,100864.75
2022-09-25T19:14:19.978Z,100857.31
2022-09-25T19:16:48.175Z,100858.72
2022-09-25T19:19:15.821Z,100857.47
2022-09-25T19:21:44.890Z,100854.34
2022-09-25T19:24:13.035Z,100854.72
2022-09-25T19:26:41.544Z,100844.63
2022-09-25T19:29:09.447Z,100852.81
2022-09-25T19:31:37.567Z,100847.25
2022-09-25T19:34:05.308Z,100845.75
2022-09-25T19:36:34.622Z,100834.69
2022-09-25T19:39:03.872Z,100844.69
2022-09-25T19:41:33.954Z,100842.22
2022-09-25T19:44:08.133Z,100837.25
2022-09-25T19:46:41.395Z,100842.13
2022-09-25T19:49:09.745Z,100847.84
2022-09-25T19:51:37.640Z,100844.34
2022-09-25T19:54:07.703Z,100839.41
2022-09-25T19:56:40.305Z,100837.94
2022-09-25T19:59:08.651Z,100836.28
2022-09-25T20:01:36.441Z,100834.00
2022-09-25T20:04:08.271Z,100835.03
2022-09-25T20:06:37.519Z,100837.03
2022-09-25T20:09:09.758Z,100830.91
2022-09-25T20:11:37.553Z,100825.59
2022-09-25T20:14:07.439Z,100828.41
2022-09-25T20:16:37.258Z,100826.59
2022-09-25T20:19:06.655Z,100819.59
2022-09-25T20:21:36.235Z,100823.28
2022-09-25T20:24:07.430Z,100826.97
2022-09-25T20:26:35.898Z,100815.47
2022-09-25T20:29:08.401Z,100831.44
2022-09-25T20:31:38.110Z,100827.34
2022-09-25T20:34:05.739Z,100822.19
2022-09-25T20:36:33.345Z,100823.00
2022-09-25T20:39:00.927Z,100818.72
2022-09-25T20:41:29.944Z,100819.09
2022-09-25T20:43:58.644Z,100822.75
2022-09-25T20:46:27.481Z,100817.44
2022-09-25T20:48:57.711Z,100819.25
2022-09-25T20:51:27.883Z,100815.97
2022-09-25T20:53:57.341Z,100815.97
2022-09-25T20:56:25.342Z,100817.59
2022-09-25T20:58:55.879Z,100801.00
2022-09-25T21:01:26.252Z,100795.88
2022-09-25T21:03:54.531Z,100788.69
2022-09-25T21:06:24.101Z,100787.25
2022-09-25T21:08:53.196Z,100787.25
2022-09-25T21:11:21.206Z,100779.25
2022-09-25T21:13:51.965Z,100793.59
2022-09-25T21:16:22.705Z,100778.81
2022-09-25T21:18:53.311Z,100770.03
2022-09-25T21:21:21.081Z,100764.69
2022-09-25T21:23:51.484Z,100763.22
2022-09-25T21:26:19.695Z,100760.56
2022-09-25T21:28:48.969Z,100754.44
2022-09-25T21:31:18.522Z,100751.09
2022-09-25T21:33:47.984Z,100741.28
2022-09-25T21:36:17.804Z,100740.47
2022-09-25T21:38:45.605Z,100743.78
2022-09-25T21:41:14.750Z,100730.09
2022-09-25T21:43:42.966Z,100732.19
2022-09-25T21:46:13.995Z,100731.63
2022-09-25T21:48:44.804Z,100737.22
2022-09-25T21:51:14.518Z,100727.84
2022-09-25T21:53:42.587Z,100713.78
2022-09-25T21:56:12.150Z,100714.84
2022-09-25T21:58:40.350Z,100711.59
2022-09-25T22:01:10.176Z,100705.88
2022-09-25T22:03:39.730Z,100701.00
2022-09-25T22:06:09.875Z,100696.31
2022-09-25T22:08:40.206Z,100687.31
2022-09-25T22:11:10.610Z,100690.81
2022-09-25T22:13:40.225Z,100688.13
2022-09-25T22:16:09.736Z,100676.66
2022-09-25T22:18:42.983Z,100670.13
2022-09-25T22:21:11.094Z,100673.41
2022-09-25T22:23:40.113Z,100660.53
2022-09-25T22:26:08.243Z,100660.78
2022-09-25T22:28:36.854Z,100655.88
2022-09-25T22:31:06.885Z,100654.47
2022-09-25T22:33:34.881Z,100644.44
2022-09-25T22:36:03.807Z,100641.41
2022-09-25T22:38:31.621Z,100639.56
2022-09-25T22:41:03.702Z,100637.13
2022-09-25T22:43:31.246Z,100634.06
2022-09-25T22:45:59.737Z,100621.41
2022-09-25T22:48:27.764Z,100624.69
2022-09-25T22:50:56.042Z,100618.72
2022-09-25T22:53:24.271Z,100615.03
2022-09-25T22:55:52.143Z,100615.25
2022-09-25T22:58:21.607Z,100620.56
2022-09-25T23:00:51.616Z,100618.28
2022-09-25T23:03:22.464Z,100618.69
2022-09-25T23:05:51.983Z,100617.28
2022-09-25T23:08:19.578Z,100623.22
2022-09-25T23:11:06.200Z,100620.19
2022-09-25T23:13:35.872Z,100602.81
2022-09-25T23:16:05.833Z,100605.28
2022-09-25T23:18:33.773Z,100595.03
